Time;durP1;ratioP1;P1;durP2;ratioP2;P2;SDS_P1;SDS_P2;PMS_P1;PMS_P2;Temp;Humidity;BMP_temperature;BMP_pressure;BME280_temperature;BME280_humidity;BME280_pressure;Samples;Min_cycle;Max_cycle;Signal;HPM_P1;HPM_P2
2022/01/05 00:02:11;;;;;;;81.03;34.13;;;;;;;;;;5036228;28;20413;-37
2022/01/05 00:04:37;;;;;;;68.40;33.00;;;;;;;;;;5032564;28;20528;-37
2022/01/05 00:07:04;;;;;;;61.23;29.87;;;;;;;;;;5055564;28;20440;-38
2022/01/05 00:09:30;;;;;;;55.27;30.23;;;;;;;;;;5052538;28;20451;-37
2022/01/05 00:11:56;;;;;;;61.97;30.80;;;;;;;;;;5039950;28;20718;-37
2022/01/05 00:14:22;;;;;;;62.03;30.20;;;;;;;;;;5034290;28;20419;-37
2022/01/05 00:16:48;;;;;;;55.63;27.63;;;;;;;;;;5040289;28;20441;-37
2022/01/05 00:19:14;;;;;;;48.50;26.10;;;;;;;;;;5039936;28;20448;-37
2022/01/05 00:21:41;;;;;;;49.53;26.23;;;;;;;;;;5038319;28;20906;-37
2022/01/05 00:24:08;;;;;;;51.63;27.03;;;;;;;;;;5054458;28;20422;-38
2022/01/05 00:26:34;;;;;;;55.07;26.73;;;;;;;;;;5039260;28;20531;-38
2022/01/05 00:29:00;;;;;;;50.63;27.27;;;;;;;;;;5050030;28;20408;-35
2022/01/05 00:31:27;;;;;;;73.10;30.97;;;;;;;;;;5043515;28;20459;-35
2022/01/05 00:33:53;;;;;;;57.33;30.33;;;;;;;;;;5033148;28;20681;-35
2022/01/05 00:36:20;;;;;;;60.30;27.87;;;;;;;;;;5037809;28;20457;-36
2022/01/05 00:38:46;;;;;;;50.10;28.77;;;;;;;;;;5042108;28;20438;-35
2022/01/05 00:41:12;;;;;;;60.00;28.40;;;;;;;;;;5053684;28;20773;-36
2022/01/05 00:43:39;;;;;;;47.33;27.10;;;;;;;;;;5039506;28;20834;-36
2022/01/05 00:46:05;;;;;;;50.90;27.47;;;;;;;;;;5037076;28;20925;-36
2022/01/05 00:48:34;;;;;;;72.43;31.50;;;;;;;;;;5036547;28;20519;-36
2022/01/05 00:51:02;;;;;;;48.13;26.87;;;;;;;;;;5054306;28;20451;-36
2022/01/05 00:53:28;;;;;;;59.03;27.33;;;;;;;;;;5039686;28;20695;-36
2022/01/05 00:55:54;;;;;;;46.77;25.80;;;;;;;;;;5053471;28;20436;-36
2022/01/05 00:58:20;;;;;;;52.03;28.33;;;;;;;;;;5032126;28;20961;-37
2022/01/05 01:00:46;;;;;;;51.40;27.57;;;;;;;;;;5038656;28;20439;-36
2022/01/05 01:03:13;;;;;;;56.77;27.13;;;;;;;;;;5039221;28;20414;-36
2022/01/05 01:05:39;;;;;;;64.70;28.67;;;;;;;;;;5033388;28;21270;-36
2022/01/05 01:08:05;;;;;;;49.13;26.50;;;;;;;;;;5033786;28;20426;-36
2022/01/05 01:10:31;;;;;;;56.93;29.80;;;;;;;;;;5042483;28;21009;-37
2022/01/05 01:12:57;;;;;;;95.67;36.63;;;;;;;;;;5054381;28;20450;-36
2022/01/05 01:15:24;;;;;;;59.17;29.47;;;;;;;;;;5051490;28;20967;-37
2022/01/05 01:17:50;;;;;;;69.00;29.50;;;;;;;;;;5038146;28;20675;-36
2022/01/05 01:20:16;;;;;;;67.73;31.77;;;;;;;;;;5039380;28;21161;-38
2022/01/05 01:22:42;;;;;;;53.40;28.60;;;;;;;;;;5041906;28;20433;-36
2022/01/05 01:25:10;;;;;;;57.27;30.30;;;;;;;;;;5037318;28;20563;-37
2022/01/05 01:27:40;;;;;;;61.13;31.03;;;;;;;;;;5032581;28;20429;-37
2022/01/05 01:30:06;;;;;;;63.30;32.27;;;;;;;;;;5036973;28;20416;-37
2022/01/05 01:32:32;;;;;;;54.20;28.80;;;;;;;;;;5049525;28;20425;-36
2022/01/05 01:34:59;;;;;;;80.63;34.03;;;;;;;;;;5037593;28;20417;-36
2022/01/05 01:37:25;;;;;;;71.67;32.90;;;;;;;;;;5033762;28;20479;-37
2022/01/05 01:39:51;;;;;;;74.97;34.10;;;;;;;;;;5033355;28;20427;-38
2022/01/05 01:42:17;;;;;;;64.20;32.97;;;;;;;;;;5056664;28;20431;-38
2022/01/05 01:44:44;;;;;;;64.57;32.03;;;;;;;;;;5055616;28;20427;-37
2022/01/05 01:47:10;;;;;;;68.33;33.23;;;;;;;;;;5051692;28;20433;-38
2022/01/05 01:49:36;;;;;;;67.17;33.90;;;;;;;;;;5035005;28;20831;-37
2022/01/05 01:52:02;;;;;;;73.03;33.97;;;;;;;;;;5034383;28;20417;-37
2022/01/05 01:54:29;;;;;;;86.07;35.90;;;;;;;;;;5035041;28;20502;-37
2022/01/05 01:56:55;;;;;;;71.63;34.20;;;;;;;;;;5051297;28;20465;-38
2022/01/05 01:59:22;;;;;;;65.50;32.37;;;;;;;;;;5038239;28;20420;-38
2022/01/05 02:01:48;;;;;;;69.47;34.20;;;;;;;;;;5031744;28;20425;-38
2022/01/05 02:04:14;;;;;;;68.53;34.63;;;;;;;;;;5036627;28;20417;-37
2022/01/05 02:06:40;;;;;;;121.53;42.37;;;;;;;;;;5036307;28;20916;-38
2022/01/05 02:09:06;;;;;;;96.57;38.73;;;;;;;;;;5033423;28;20893;-37
2022/01/05 02:11:34;;;;;;;82.53;37.40;;;;;;;;;;5036049;28;20883;-38
2022/01/05 02:14:00;;;;;;;137.93;43.03;;;;;;;;;;5037183;28;20432;-38
2022/01/05 02:16:30;;;;;;;148.13;45.23;;;;;;;;;;5042500;28;20445;-37
2022/01/05 02:19:00;;;;;;;91.40;38.47;;;;;;;;;;5034541;28;20429;-38
2022/01/05 02:21:46;;;;;;;114.33;38.13;;;;;;;;;;5033445;28;20429;-39
2022/01/05 02:24:12;;;;;;;88.90;38.03;;;;;;;;;;5050688;28;20432;-38
2022/01/05 02:26:39;;;;;;;102.03;37.63;;;;;;;;;;5053390;28;20409;-38
2022/01/05 02:29:06;;;;;;;122.50;41.07;;;;;;;;;;5032075;28;20661;-38
2022/01/05 02:31:32;;;;;;;94.20;36.73;;;;;;;;;;5035113;28;20428;-38
2022/01/05 02:33:58;;;;;;;119.93;40.07;;;;;;;;;;5038439;28;20425;-38
2022/01/05 02:36:25;;;;;;;110.10;39.83;;;;;;;;;;5051377;28;20869;-37
2022/01/05 02:38:52;;;;;;;107.90;39.63;;;;;;;;;;5035775;28;20979;-38
2022/01/05 02:41:18;;;;;;;108.27;37.23;;;;;;;;;;5036478;28;21266;-38
2022/01/05 02:43:45;;;;;;;89.67;35.00;;;;;;;;;;5042637;28;20429;-38
2022/01/05 02:46:12;;;;;;;142.63;40.60;;;;;;;;;;5043052;28;20840;-37
2022/01/05 02:48:39;;;;;;;84.03;33.90;;;;;;;;;;5058080;28;20826;-37
2022/01/05 02:51:06;;;;;;;81.80;33.87;;;;;;;;;;5037819;28;20437;-38
2022/01/05 02:53:32;;;;;;;71.13;32.40;;;;;;;;;;5053096;28;20510;-38
2022/01/05 02:55:58;;;;;;;126.97;36.13;;;;;;;;;;5054397;28;20421;-38
2022/01/05 02:58:25;;;;;;;111.03;33.67;;;;;;;;;;5038267;28;20457;-38
2022/01/05 03:00:51;;;;;;;117.97;32.73;;;;;;;;;;5035131;28;20840;-39
2022/01/05 03:03:17;;;;;;;84.57;31.63;;;;;;;;;;5035732;28;20409;-38
2022/01/05 03:05:44;;;;;;;126.17;39.20;;;;;;;;;;5034696;28;20609;-38
2022/01/05 03:08:10;;;;;;;99.83;36.77;;;;;;;;;;5057839;28;20437;-38
2022/01/05 03:10:37;;;;;;;82.93;34.77;;;;;;;;;;5056165;28;20988;-37
2022/01/05 03:13:03;;;;;;;120.50;38.00;;;;;;;;;;5041782;28;20435;-38
2022/01/05 03:15:29;;;;;;;88.93;35.10;;;;;;;;;;5037828;28;20487;-38
2022/01/05 03:17:55;;;;;;;84.97;34.47;;;;;;;;;;5052838;28;20456;-37
2022/01/05 03:20:22;;;;;;;70.23;32.30;;;;;;;;;;5057287;28;20437;-38
2022/01/05 03:22:49;;;;;;;76.43;31.83;;;;;;;;;;5039199;28;20418;-37
2022/01/05 03:25:16;;;;;;;64.93;32.00;;;;;;;;;;5038718;28;20421;-37
2022/01/05 03:27:46;;;;;;;86.87;33.70;;;;;;;;;;5035127;28;21010;-37
2022/01/05 03:30:13;;;;;;;110.57;35.33;;;;;;;;;;5037071;28;20910;-37
2022/01/05 03:32:56;;;;;;;105.43;32.23;;;;;;;;;;5040023;28;20435;-38
2022/01/05 03:35:22;;;;;;;56.23;28.73;;;;;;;;;;5039087;28;20424;-38
2022/01/05 03:37:48;;;;;;;78.67;30.73;;;;;;;;;;5033402;28;20445;-38
2022/01/05 03:40:14;;;;;;;74.80;31.07;;;;;;;;;;5039830;28;20420;-37
2022/01/05 03:42:40;;;;;;;80.07;31.80;;;;;;;;;;5055639;28;20440;-38
2022/01/05 03:45:07;;;;;;;66.57;32.00;;;;;;;;;;5042367;28;20421;-38
2022/01/05 03:47:33;;;;;;;100.93;34.23;;;;;;;;;;5035899;28;20507;-38
2022/01/05 03:49:59;;;;;;;62.87;30.80;;;;;;;;;;5053782;28;20452;-38
2022/01/05 03:52:26;;;;;;;71.20;33.03;;;;;;;;;;5054805;28;20433;-37
2022/01/05 03:54:52;;;;;;;65.90;31.33;;;;;;;;;;5051323;28;21013;-38
2022/01/05 03:57:18;;;;;;;63.63;32.33;;;;;;;;;;5039080;28;20451;-38
2022/01/05 03:59:44;;;;;;;65.60;31.37;;;;;;;;;;5039126;28;20554;-38
2022/01/05 04:02:10;;;;;;;56.27;28.93;;;;;;;;;;5042054;28;20828;-37
2022/01/05 04:04:36;;;;;;;54.17;27.87;;;;;;;;;;5038618;28;20432;-38
2022/01/05 04:07:03;;;;;;;52.73;28.10;;;;;;;;;;5033819;28;20863;-38
2022/01/05 04:09:30;;;;;;;45.17;27.10;;;;;;;;;;5035975;28;20432;-38
2022/01/05 04:11:56;;;;;;;83.63;32.77;;;;;;;;;;5056214;28;20429;-40
2022/01/05 04:14:22;;;;;;;96.13;34.27;;;;;;;;;;5036855;28;21018;-38
2022/01/05 04:16:48;;;;;;;55.80;28.77;;;;;;;;;;5049657;28;20519;-37
2022/01/05 04:19:14;;;;;;;80.20;32.63;;;;;;;;;;5035758;28;20743;-38
2022/01/05 04:21:41;;;;;;;47.43;26.90;;;;;;;;;;5041310;28;20509;-37
2022/01/05 04:24:07;;;;;;;70.37;31.40;;;;;;;;;;5037387;28;20564;-37
2022/01/05 04:26:33;;;;;;;51.20;27.83;;;;;;;;;;5041130;28;20817;-39
2022/01/05 04:28:59;;;;;;;69.47;31.07;;;;;;;;;;5033786;28;20944;-37
2022/01/05 04:31:25;;;;;;;90.60;33.77;;;;;;;;;;5032519;28;20429;-37
2022/01/05 04:33:51;;;;;;;89.13;32.67;;;;;;;;;;5035584;28;20502;-37
2022/01/05 04:36:17;;;;;;;54.40;29.03;;;;;;;;;;5054374;28;20425;-38
2022/01/05 04:38:44;;;;;;;91.63;32.27;;;;;;;;;;5036098;28;20431;-37
2022/01/05 04:41:10;;;;;;;139.87;39.03;;;;;;;;;;5051221;28;20416;-37
2022/01/05 04:43:36;;;;;;;48.37;28.30;;;;;;;;;;5041966;28;20412;-38
2022/01/05 04:46:02;;;;;;;69.23;30.67;;;;;;;;;;5054494;28;22371;-37
2022/01/05 04:48:29;;;;;;;43.30;26.03;;;;;;;;;;5041067;28;20735;-37
2022/01/05 04:50:55;;;;;;;63.30;25.83;;;;;;;;;;5035404;28;20458;-38
2022/01/05 04:53:21;;;;;;;53.50;26.27;;;;;;;;;;5031627;28;20433;-38
2022/01/05 04:55:48;;;;;;;78.70;30.27;;;;;;;;;;5053709;28;20518;-38
2022/01/05 04:58:14;;;;;;;72.97;32.47;;;;;;;;;;5053334;28;20457;-38
2022/01/05 05:00:40;;;;;;;49.53;28.13;;;;;;;;;;5042424;28;20425;-38
2022/01/05 05:03:06;;;;;;;85.87;33.47;;;;;;;;;;5038593;28;20416;-38
2022/01/05 05:05:34;;;;;;;42.73;26.07;;;;;;;;;;5049368;28;20747;-37
2022/01/05 05:08:01;;;;;;;57.37;29.03;;;;;;;;;;5041899;28;20443;-37
2022/01/05 05:10:27;;;;;;;58.10;30.63;;;;;;;;;;5036133;28;20940;-38
2022/01/05 05:12:53;;;;;;;43.87;25.57;;;;;;;;;;5032165;28;21187;-38
2022/01/05 05:15:19;;;;;;;63.13;27.93;;;;;;;;;;5036007;28;20971;-39
2022/01/05 05:17:46;;;;;;;49.03;28.37;;;;;;;;;;5043192;28;20461;-38
2022/01/05 05:20:12;;;;;;;57.57;29.07;;;;;;;;;;5056985;28;20462;-40
2022/01/05 05:22:38;;;;;;;50.60;28.10;;;;;;;;;;5050374;28;20811;-38
2022/01/05 05:25:05;;;;;;;82.10;34.27;;;;;;;;;;5035989;28;20432;-37
2022/01/05 05:27:31;;;;;;;49.10;27.30;;;;;;;;;;5037624;28;20937;-37
2022/01/05 05:29:57;;;;;;;66.53;30.03;;;;;;;;;;5040333;28;21415;-37
2022/01/05 05:32:23;;;;;;;80.50;31.93;;;;;;;;;;5038196;28;20772;-38
2022/01/05 05:34:49;;;;;;;47.97;27.57;;;;;;;;;;5032999;28;20959;-39
2022/01/05 05:37:16;;;;;;;48.30;28.23;;;;;;;;;;5035260;28;20799;-38
2022/01/05 05:39:43;;;;;;;74.03;28.63;;;;;;;;;;5048509;28;20844;-38
2022/01/05 05:42:09;;;;;;;40.70;25.27;;;;;;;;;;5036277;28;20835;-38
2022/01/05 05:44:35;;;;;;;47.10;24.60;;;;;;;;;;5055856;28;21293;-40
2022/01/05 05:47:01;;;;;;;53.43;24.63;;;;;;;;;;5052578;28;20796;-38
2022/01/05 05:49:27;;;;;;;54.43;24.60;;;;;;;;;;5039825;28;20421;-38
2022/01/05 05:51:53;;;;;;;50.60;25.97;;;;;;;;;;5051418;28;20769;-38
2022/01/05 05:54:20;;;;;;;59.30;28.03;;;;;;;;;;5037314;28;20433;-38
2022/01/05 05:56:46;;;;;;;71.67;29.43;;;;;;;;;;5040329;28;20484;-38
2022/01/05 05:59:12;;;;;;;35.80;22.30;;;;;;;;;;5052383;28;20462;-38
2022/01/05 06:01:38;;;;;;;37.67;23.13;;;;;;;;;;5040023;28;20424;-38
2022/01/05 06:04:04;;;;;;;41.30;24.33;;;;;;;;;;5040433;28;20972;-38
2022/01/05 06:06:31;;;;;;;43.63;25.33;;;;;;;;;;5052879;28;20421;-38
2022/01/05 06:08:57;;;;;;;44.40;25.60;;;;;;;;;;5037674;28;20582;-38
2022/01/05 06:11:23;;;;;;;51.73;26.73;;;;;;;;;;5049786;28;22159;-38
2022/01/05 06:13:50;;;;;;;46.90;25.83;;;;;;;;;;5042426;28;20870;-37
2022/01/05 06:16:17;;;;;;;47.97;26.33;;;;;;;;;;5039063;28;20457;-38
2022/01/05 06:18:43;;;;;;;45.13;26.20;;;;;;;;;;5055300;28;20933;-38
2022/01/05 06:21:09;;;;;;;44.53;25.37;;;;;;;;;;5048682;28;20845;-38
2022/01/05 06:23:35;;;;;;;46.13;23.63;;;;;;;;;;5035140;28;20440;-37
2022/01/05 06:26:01;;;;;;;52.90;25.13;;;;;;;;;;5043098;28;20854;-37
2022/01/05 06:28:28;;;;;;;39.77;23.43;;;;;;;;;;5038561;28;20427;-38
2022/01/05 06:30:54;;;;;;;51.93;23.83;;;;;;;;;;5041954;28;20424;-39
2022/01/05 06:33:20;;;;;;;39.07;23.83;;;;;;;;;;5040673;28;20912;-38
2022/01/05 06:35:46;;;;;;;89.20;27.53;;;;;;;;;;5055744;28;20494;-39
2022/01/05 06:38:12;;;;;;;45.70;24.43;;;;;;;;;;5039464;28;20456;-39
2022/01/05 06:40:39;;;;;;;42.90;24.43;;;;;;;;;;5038756;28;20681;-38
2022/01/05 06:43:05;;;;;;;69.53;30.07;;;;;;;;;;5051973;28;20516;-39
2022/01/05 06:45:31;;;;;;;39.03;24.20;;;;;;;;;;5055168;28;20846;-38
2022/01/05 06:47:58;;;;;;;90.67;33.60;;;;;;;;;;5048437;28;20429;-38
2022/01/05 06:50:25;;;;;;;49.40;27.77;;;;;;;;;;5040191;28;20430;-38
2022/01/05 06:52:51;;;;;;;46.53;26.10;;;;;;;;;;5039754;28;20414;-38
2022/01/05 06:55:18;;;;;;;54.63;30.77;;;;;;;;;;5054248;28;20441;-38
2022/01/05 06:57:44;;;;;;;55.23;30.83;;;;;;;;;;5036721;28;20453;-38
2022/01/05 07:00:11;;;;;;;49.90;27.97;;;;;;;;;;5039216;28;20955;-38
2022/01/05 07:02:37;;;;;;;55.20;28.10;;;;;;;;;;5045943;28;20409;-38
2022/01/05 07:05:04;;;;;;;101.77;34.73;;;;;;;;;;5048557;28;20910;-38
2022/01/05 07:07:30;;;;;;;46.30;27.50;;;;;;;;;;5051679;28;20952;-38
2022/01/05 07:09:56;;;;;;;48.20;26.60;;;;;;;;;;5042679;28;20883;-38
2022/01/05 07:12:22;;;;;;;58.50;29.40;;;;;;;;;;5044519;28;20495;-38
2022/01/05 07:14:49;;;;;;;53.00;27.47;;;;;;;;;;5039522;28;20432;-38
2022/01/05 07:17:15;;;;;;;42.57;26.73;;;;;;;;;;5040764;28;20476;-39
2022/01/05 07:19:41;;;;;;;50.03;27.90;;;;;;;;;;5043981;28;20723;-38
2022/01/05 07:22:07;;;;;;;66.17;31.90;;;;;;;;;;5043941;28;20909;-38
2022/01/05 07:24:33;;;;;;;49.00;28.40;;;;;;;;;;5040884;28;20545;-38
2022/01/05 07:26:59;;;;;;;56.77;30.33;;;;;;;;;;5041648;28;20805;-38
2022/01/05 07:29:25;;;;;;;51.13;28.67;;;;;;;;;;5055696;28;21068;-39
2022/01/05 07:31:51;;;;;;;48.13;26.53;;;;;;;;;;5054325;28;20424;-38
2022/01/05 07:34:18;;;;;;;53.77;27.83;;;;;;;;;;5040821;28;20993;-38
2022/01/05 07:36:44;;;;;;;54.43;29.20;;;;;;;;;;5040626;28;21037;-39
2022/01/05 07:39:10;;;;;;;55.07;30.17;;;;;;;;;;5038529;28;20421;-38
2022/01/05 07:41:37;;;;;;;49.30;29.37;;;;;;;;;;5034483;28;21162;-39
2022/01/05 07:44:05;;;;;;;71.37;33.70;;;;;;;;;;5033155;28;20773;-38
2022/01/05 07:46:31;;;;;;;54.57;28.77;;;;;;;;;;5044501;28;20491;-38
2022/01/05 07:48:57;;;;;;;48.80;27.13;;;;;;;;;;5054182;28;20540;-38
2022/01/05 07:51:24;;;;;;;44.63;25.90;;;;;;;;;;5051451;28;21068;-38
2022/01/05 07:53:50;;;;;;;56.10;29.67;;;;;;;;;;5034781;28;21137;-39
2022/01/05 07:56:17;;;;;;;53.30;29.57;;;;;;;;;;5038439;28;20405;-37
2022/01/05 07:58:43;;;;;;;39.93;24.67;;;;;;;;;;5037686;28;20491;-38
2022/01/05 08:01:09;;;;;;;37.43;22.97;;;;;;;;;;5046461;28;20838;-37
2022/01/05 08:03:37;;;;;;;37.27;24.03;;;;;;;;;;5055031;28;20414;-38
2022/01/05 08:06:04;;;;;;;37.57;23.83;;;;;;;;;;5042329;28;21103;-38
2022/01/05 08:08:31;;;;;;;37.23;23.30;;;;;;;;;;5043846;28;20506;-37
2022/01/05 08:10:59;;;;;;;34.63;22.67;;;;;;;;;;5042436;28;21176;-38
2022/01/05 08:13:26;;;;;;;29.83;20.57;;;;;;;;;;5038467;28;20432;-38
2022/01/05 08:15:52;;;;;;;35.27;19.70;;;;;;;;;;5058061;28;20417;-38
2022/01/05 08:18:19;;;;;;;30.90;18.03;;;;;;;;;;5040918;28;21350;-38
2022/01/05 08:20:45;;;;;;;33.73;19.73;;;;;;;;;;5040618;28;20416;-38
2022/01/05 08:23:15;;;;;;;27.50;17.60;;;;;;;;;;5030908;28;20725;-38
2022/01/05 08:25:41;;;;;;;30.73;19.03;;;;;;;;;;5051407;28;20511;-38
2022/01/05 08:28:10;;;;;;;37.23;21.57;;;;;;;;;;5043815;28;20414;-38
2022/01/05 08:30:36;;;;;;;36.30;21.80;;;;;;;;;;5040800;28;20454;-38
2022/01/05 08:33:03;;;;;;;34.07;21.30;;;;;;;;;;5057183;28;20513;-37
2022/01/05 08:35:30;;;;;;;35.53;22.07;;;;;;;;;;5044049;28;20528;-38
2022/01/05 08:37:56;;;;;;;33.80;21.73;;;;;;;;;;5056725;28;21231;-38
2022/01/05 08:40:24;;;;;;;49.63;28.00;;;;;;;;;;5043799;28;20495;-38
2022/01/05 08:42:50;;;;;;;63.50;32.70;;;;;;;;;;5045160;28;20413;-37
2022/01/05 08:45:17;;;;;;;49.37;28.17;;;;;;;;;;5049655;28;20432;-37
2022/01/05 08:47:47;;;;;;;52.67;30.13;;;;;;;;;;5043855;28;21099;-37
2022/01/05 08:50:14;;;;;;;55.17;30.43;;;;;;;;;;5042608;28;20425;-37
2022/01/05 08:52:40;;;;;;;45.63;27.33;;;;;;;;;;5042654;28;20422;-37
2022/01/05 08:55:07;;;;;;;48.30;28.50;;;;;;;;;;5040571;28;20440;-37
2022/01/05 08:57:33;;;;;;;50.10;29.37;;;;;;;;;;5050439;28;20824;-37
2022/01/05 08:59:59;;;;;;;50.70;30.30;;;;;;;;;;5052675;28;20421;-37
2022/01/05 09:02:26;;;;;;;60.13;32.13;;;;;;;;;;5052246;28;20419;-37
2022/01/05 09:04:52;;;;;;;108.23;43.30;;;;;;;;;;5062127;28;20428;-37
2022/01/05 09:07:21;;;;;;;80.60;41.73;;;;;;;;;;5040838;28;20416;-37
2022/01/05 09:09:47;;;;;;;123.50;47.30;;;;;;;;;;5059528;28;20607;-37
2022/01/05 09:12:13;;;;;;;115.80;46.07;;;;;;;;;;5036868;28;20429;-37
2022/01/05 09:14:40;;;;;;;117.47;49.03;;;;;;;;;;5041703;28;20436;-37
2022/01/05 09:17:07;;;;;;;135.60;53.13;;;;;;;;;;5055278;28;20504;-37
2022/01/05 09:19:33;;;;;;;150.93;56.20;;;;;;;;;;5055478;28;21327;-37
2022/01/05 09:22:00;;;;;;;148.97;55.00;;;;;;;;;;5039007;28;20444;-37
2022/01/05 09:24:26;;;;;;;140.30;57.23;;;;;;;;;;5038791;28;20832;-37
2022/01/05 09:26:52;;;;;;;141.70;55.50;;;;;;;;;;5036647;28;20425;-37
2022/01/05 09:29:19;;;;;;;231.53;62.77;;;;;;;;;;5034220;28;20518;-37
2022/01/05 09:31:45;;;;;;;184.93;62.90;;;;;;;;;;5045818;28;20428;-37
2022/01/05 09:34:12;;;;;;;197.20;64.63;;;;;;;;;;5047732;28;20420;-37
2022/01/05 09:36:47;;;;;;;156.67;60.87;;;;;;;;;;5055530;28;20417;-37
2022/01/05 09:42:00;;;;;;;158.13;61.83;;;;;;;;;;5059381;28;20499;-37
2022/01/05 09:44:41;;;;;;;205.13;67.30;;;;;;;;;;5045937;28;20457;-38
2022/01/05 09:47:26;;;;;;;203.67;65.87;;;;;;;;;;5047267;28;21276;-37
2022/01/05 09:50:02;;;;;;;219.23;71.03;;;;;;;;;;5043201;28;20464;-37
2022/01/05 09:52:29;;;;;;;237.40;73.00;;;;;;;;;;5061594;28;20416;-37
2022/01/05 09:54:55;;;;;;;142.07;62.30;;;;;;;;;;5045375;28;20432;-37
2022/01/05 09:57:21;;;;;;;160.90;61.83;;;;;;;;;;5045207;28;20452;-40
2022/01/05 09:59:48;;;;;;;127.17;57.03;;;;;;;;;;5049847;28;20440;-38
2022/01/05 10:02:16;;;;;;;179.20;63.47;;;;;;;;;;5044241;28;20519;-38
2022/01/05 10:04:42;;;;;;;180.97;64.80;;;;;;;;;;5044775;28;20893;-38
2022/01/05 10:07:11;;;;;;;143.77;59.83;;;;;;;;;;5049587;28;20440;-37
2022/01/05 10:09:38;;;;;;;143.23;60.70;;;;;;;;;;5057869;28;21318;-38
2022/01/05 10:12:04;;;;;;;151.37;60.43;;;;;;;;;;5046524;28;20408;-38
2022/01/05 10:14:31;;;;;;;166.47;60.70;;;;;;;;;;5050035;28;20411;-37
2022/01/05 10:17:17;;;;;;;128.60;55.00;;;;;;;;;;5043738;28;20457;-37
2022/01/05 10:19:45;;;;;;;132.70;56.33;;;;;;;;;;5033811;28;21112;-36
2022/01/05 10:22:34;;;;;;;125.47;55.33;;;;;;;;;;5059049;28;20417;-37
2022/01/05 10:25:02;;;;;;;145.07;59.17;;;;;;;;;;5045410;28;20519;-37
2022/01/05 10:27:29;;;;;;;138.80;58.77;;;;;;;;;;5047175;28;20444;-36
2022/01/05 10:29:55;;;;;;;128.47;55.00;;;;;;;;;;5038763;28;20541;-37
2022/01/05 10:32:21;;;;;;;124.67;54.13;;;;;;;;;;5057819;28;20407;-37
2022/01/05 10:35:08;;;;;;;108.60;50.70;;;;;;;;;;5040143;28;20524;-37
2022/01/05 10:37:34;;;;;;;119.47;52.37;;;;;;;;;;5040078;28;21385;-38
2022/01/05 10:40:27;;;;;;;102.83;49.47;;;;;;;;;;5042531;28;20408;-37
2022/01/05 10:42:55;;;;;;;112.13;50.37;;;;;;;;;;5035156;28;20460;-38
2022/01/05 10:45:25;;;;;;;122.33;52.50;;;;;;;;;;5060365;28;21326;-37
2022/01/05 10:48:05;;;;;;;111.87;50.27;;;;;;;;;;5048612;28;20420;-37
2022/01/05 10:50:31;;;;;;;125.40;52.30;;;;;;;;;;5056016;28;20455;-37
2022/01/05 10:52:58;;;;;;;118.20;51.37;;;;;;;;;;5057663;28;20418;-36
2022/01/05 10:55:25;;;;;;;103.87;49.63;;;;;;;;;;5040484;28;20468;-36
2022/01/05 10:58:18;;;;;;;121.53;53.30;;;;;;;;;;5057514;28;20484;-36
2022/01/05 11:00:55;;;;;;;137.57;55.57;;;;;;;;;;5043278;28;20414;-36
2022/01/05 11:03:28;;;;;;;125.70;51.33;;;;;;;;;;5045627;28;20428;-37
2022/01/05 11:06:14;;;;;;;115.37;49.47;;;;;;;;;;5043880;28;20414;-37
2022/01/05 11:08:56;;;;;;;101.03;47.53;;;;;;;;;;5051872;28;20414;-36
2022/01/05 11:11:28;;;;;;;98.87;47.80;;;;;;;;;;5061861;28;21108;-36
2022/01/05 11:13:54;;;;;;;100.47;46.00;;;;;;;;;;5050147;28;20522;-37
2022/01/05 11:16:26;;;;;;;103.33;47.63;;;;;;;;;;5046092;28;20475;-37
2022/01/05 11:19:10;;;;;;;113.50;50.10;;;;;;;;;;5051129;28;20459;-37
2022/01/05 11:21:41;;;;;;;107.53;48.00;;;;;;;;;;5062986;28;20502;-36
2022/01/05 11:24:07;;;;;;;120.40;49.80;;;;;;;;;;5048137;28;20398;-35
2022/01/05 11:26:37;;;;;;;115.77;48.50;;;;;;;;;;5048936;28;20421;-36
2022/01/05 11:29:04;;;;;;;112.30;49.07;;;;;;;;;;5045413;28;20419;-37
2022/01/05 11:31:33;;;;;;;104.80;48.10;;;;;;;;;;5045785;28;20424;-37
2022/01/05 11:33:59;;;;;;;99.10;46.37;;;;;;;;;;5065232;28;21089;-37
2022/01/05 11:36:26;;;;;;;101.13;45.97;;;;;;;;;;5042876;28;20434;-37
2022/01/05 11:38:53;;;;;;;100.50;47.10;;;;;;;;;;5058446;28;20492;-36
2022/01/05 11:41:19;;;;;;;119.10;50.27;;;;;;;;;;5058930;28;20417;-37
2022/01/05 11:43:46;;;;;;;113.73;48.67;;;;;;;;;;5038162;28;20489;-39
2022/01/05 11:46:14;;;;;;;114.60;49.90;;;;;;;;;;5033536;28;20422;-36
2022/01/05 11:48:40;;;;;;;108.63;46.33;;;;;;;;;;5040212;28;20417;-36
2022/01/05 11:51:07;;;;;;;102.27;43.77;;;;;;;;;;5058423;28;20421;-36
2022/01/05 11:53:41;;;;;;;112.53;46.57;;;;;;;;;;5052574;28;20414;-37
2022/01/05 11:56:21;;;;;;;98.57;44.13;;;;;;;;;;5033409;28;20418;-38
2022/01/05 11:59:02;;;;;;;123.43;50.37;;;;;;;;;;5057448;28;21482;-38
2022/01/05 12:01:33;;;;;;;133.03;51.13;;;;;;;;;;5039874;28;20423;-38
2022/01/05 12:04:01;;;;;;;128.13;49.77;;;;;;;;;;5042239;28;20408;-38
2022/01/05 12:06:31;;;;;;;122.87;51.43;;;;;;;;;;5043541;28;21093;-38
2022/01/05 12:08:59;;;;;;;125.03;51.43;;;;;;;;;;5059644;28;20413;-38
2022/01/05 12:11:29;;;;;;;138.40;54.63;;;;;;;;;;5045829;28;20421;-38
2022/01/05 12:13:56;;;;;;;141.50;53.20;;;;;;;;;;5047756;28;20421;-38
2022/01/05 12:16:23;;;;;;;124.73;50.17;;;;;;;;;;5058690;28;20880;-38
2022/01/05 12:19:05;;;;;;;111.93;47.97;;;;;;;;;;5055584;28;20464;-38
2022/01/05 12:21:45;;;;;;;109.63;48.27;;;;;;;;;;5059947;28;20514;-37
2022/01/05 12:24:12;;;;;;;121.53;48.30;;;;;;;;;;5044277;28;20523;-38
2022/01/05 12:26:38;;;;;;;118.50;51.30;;;;;;;;;;5060507;28;20413;-37
2022/01/05 12:29:04;;;;;;;109.63;46.77;;;;;;;;;;5041028;28;20765;-38
2022/01/05 12:31:49;;;;;;;102.80;44.93;;;;;;;;;;5040933;28;20457;-39
2022/01/05 12:34:35;;;;;;;101.63;44.27;;;;;;;;;;5039603;28;20418;-38
2022/01/05 12:37:01;;;;;;;90.27;43.23;;;;;;;;;;5056453;28;20498;-38
2022/01/05 12:39:46;;;;;;;96.10;43.80;;;;;;;;;;5035494;28;21206;-37
2022/01/05 12:42:22;;;;;;;83.47;39.77;;;;;;;;;;5051487;28;20413;-37
2022/01/05 12:44:49;;;;;;;95.90;43.17;;;;;;;;;;5039579;28;21037;-38
2022/01/05 12:47:16;;;;;;;87.77;41.77;;;;;;;;;;5052613;28;20746;-38
2022/01/05 12:49:42;;;;;;;90.07;42.13;;;;;;;;;;5036929;28;20530;-38
2022/01/05 12:52:15;;;;;;;92.40;43.30;;;;;;;;;;5036461;28;20471;-38
2022/01/05 12:54:47;;;;;;;76.30;37.63;;;;;;;;;;5035214;28;20413;-38
2022/01/05 12:57:14;;;;;;;79.87;38.83;;;;;;;;;;5037194;28;21073;-38
2022/01/05 12:59:43;;;;;;;72.83;37.53;;;;;;;;;;5035117;28;20483;-37
2022/01/05 13:02:16;;;;;;;70.33;36.13;;;;;;;;;;5039652;28;20529;-38
2022/01/05 13:04:49;;;;;;;70.00;35.57;;;;;;;;;;5035647;28;20512;-38
2022/01/05 13:07:17;;;;;;;77.73;37.30;;;;;;;;;;5051164;28;21193;-38
2022/01/05 13:09:47;;;;;;;69.03;34.83;;;;;;;;;;5051563;28;20925;-37
2022/01/05 13:12:16;;;;;;;76.20;36.80;;;;;;;;;;5046057;28;20453;-37
2022/01/05 13:14:53;;;;;;;75.77;36.30;;;;;;;;;;5046195;28;20444;-37
2022/01/05 13:17:23;;;;;;;75.20;35.17;;;;;;;;;;5041732;28;20833;-37
2022/01/05 13:19:55;;;;;;;66.53;34.30;;;;;;;;;;5037827;28;20425;-37
2022/01/05 13:22:32;;;;;;;73.70;35.43;;;;;;;;;;5050547;28;20852;-38
2022/01/05 13:25:17;;;;;;;63.50;33.23;;;;;;;;;;5034739;28;20510;-37
2022/01/05 13:27:48;;;;;;;56.80;31.03;;;;;;;;;;5050089;28;20425;-37
2022/01/05 13:30:18;;;;;;;58.20;30.57;;;;;;;;;;5031349;28;20421;-37
2022/01/05 13:32:44;;;;;;;60.93;32.03;;;;;;;;;;5031937;28;20950;-37
2022/01/05 13:35:18;;;;;;;62.97;32.43;;;;;;;;;;5049343;28;20433;-37
2022/01/05 13:37:46;;;;;;;57.03;30.10;;;;;;;;;;5037053;28;20655;-37
2022/01/05 13:40:17;;;;;;;53.97;28.23;;;;;;;;;;5056744;28;21116;-37
2022/01/05 13:42:47;;;;;;;44.13;24.77;;;;;;;;;;5040371;28;21304;-37
2022/01/05 13:45:16;;;;;;;38.17;23.93;;;;;;;;;;5039701;28;20413;-37
2022/01/05 13:47:42;;;;;;;41.37;22.63;;;;;;;;;;5034397;28;20899;-37
2022/01/05 13:50:12;;;;;;;38.37;22.13;;;;;;;;;;5037850;28;20785;-37
2022/01/05 13:52:39;;;;;;;41.93;23.13;;;;;;;;;;5035715;28;20790;-37
2022/01/05 13:55:06;;;;;;;35.10;21.60;;;;;;;;;;5052634;28;20455;-36
2022/01/05 13:57:33;;;;;;;38.50;21.50;;;;;;;;;;5030592;28;20492;-37
2022/01/05 14:00:10;;;;;;;32.40;19.67;;;;;;;;;;5054060;28;20990;-37
2022/01/05 14:02:37;;;;;;;30.50;18.23;;;;;;;;;;5035457;28;20415;-36
2022/01/05 14:05:04;;;;;;;27.83;17.23;;;;;;;;;;5035315;28;20455;-37
2022/01/05 14:07:31;;;;;;;23.77;15.60;;;;;;;;;;5035591;28;20719;-36
2022/01/05 14:10:08;;;;;;;24.20;15.43;;;;;;;;;;5031581;28;20437;-37
2022/01/05 14:12:57;;;;;;;20.07;12.50;;;;;;;;;;5054927;28;20416;-38
2022/01/05 14:15:26;;;;;;;19.57;12.87;;;;;;;;;;5049611;28;20726;-37
2022/01/05 14:17:59;;;;;;;17.57;12.17;;;;;;;;;;5037354;28;20531;-37
2022/01/05 14:20:25;;;;;;;17.53;12.37;;;;;;;;;;5038931;28;20598;-37
2022/01/05 14:22:59;;;;;;;17.57;12.17;;;;;;;;;;5033668;28;20415;-37